sensor_id;sensor_type;location;lat;lon;timestamp;temperature;humidity
3075;DHT22;1548;51.716;8.748;2022-08-19T00:01:51;20.30;76.80
3075;DHT22;1548;51.716;8.748;2022-08-19T00:04:20;20.30;76.90
3075;DHT22;1548;51.716;8.748;2022-08-19T00:06:47;20.20;76.90
3075;DHT22;1548;51.716;8.748;2022-08-19T00:09:14;20.20;77.00
3075;DHT22;1548;51.716;8.748;2022-08-19T00:11:40;20.20;77.00
3075;DHT22;1548;51.716;8.748;2022-08-19T00:14:08;20.20;77.00
3075;DHT22;1548;51.716;8.748;2022-08-19T00:16:36;20.20;77.00
3075;DHT22;1548;51.716;8.748;2022-08-19T00:19:02;20.30;77.00
3075;DHT22;1548;51.716;8.748;2022-08-19T00:21:29;20.30;77.10
3075;DHT22;1548;51.716;8.748;2022-08-19T00:23:55;20.20;76.90
3075;DHT22;1548;51.716;8.748;2022-08-19T00:26:24;20.10;77.10
3075;DHT22;1548;51.716;8.748;2022-08-19T00:28:50;20.10;77.10
3075;DHT22;1548;51.716;8.748;2022-08-19T00:31:16;20.10;77.10
3075;DHT22;1548;51.716;8.748;2022-08-19T00:33:41;20.10;77.10
3075;DHT22;1548;51.716;8.748;2022-08-19T00:36:08;20.10;77.20
3075;DHT22;1548;51.716;8.748;2022-08-19T00:38:36;20.10;77.20
3075;DHT22;1548;51.716;8.748;2022-08-19T00:41:03;20.20;77.10
3075;DHT22;1548;51.716;8.748;2022-08-19T00:43:30;20.20;77.10
3075;DHT22;1548;51.716;8.748;2022-08-19T00:45:56;20.00;77.20
3075;DHT22;1548;51.716;8.748;2022-08-19T00:48:22;19.90;77.30
3075;DHT22;1548;51.716;8.748;2022-08-19T00:50:50;19.90;77.40
3075;DHT22;1548;51.716;8.748;2022-08-19T00:53:20;19.90;77.40
3075;DHT22;1548;51.716;8.748;2022-08-19T00:55:49;19.80;77.30
3075;DHT22;1548;51.716;8.748;2022-08-19T00:58:19;19.80;77.40
3075;DHT22;1548;51.716;8.748;2022-08-19T01:00:46;19.80;77.40
3075;DHT22;1548;51.716;8.748;2022-08-19T01:03:15;19.80;77.60
3075;DHT22;1548;51.716;8.748;2022-08-19T01:05:43;19.70;77.50
3075;DHT22;1548;51.716;8.748;2022-08-19T01:08:09;19.70;77.60
3075;DHT22;1548;51.716;8.748;2022-08-19T01:10:41;19.60;77.50
3075;DHT22;1548;51.716;8.748;2022-08-19T01:13:09;19.60;77.50
3075;DHT22;1548;51.716;8.748;2022-08-19T01:15:42;19.60;77.60
3075;DHT22;1548;51.716;8.748;2022-08-19T01:18:12;19.60;77.60
3075;DHT22;1548;51.716;8.748;2022-08-19T01:20:39;19.50;77.60
3075;DHT22;1548;51.716;8.748;2022-08-19T01:23:05;19.50;77.80
3075;DHT22;1548;51.716;8.748;2022-08-19T01:25:35;19.50;77.80
3075;DHT22;1548;51.716;8.748;2022-08-19T01:28:03;19.60;77.70
3075;DHT22;1548;51.716;8.748;2022-08-19T01:30:33;19.60;77.70
3075;DHT22;1548;51.716;8.748;2022-08-19T01:32:59;19.40;77.70
3075;DHT22;1548;51.716;8.748;2022-08-19T01:35:28;19.30;77.70
3075;DHT22;1548;51.716;8.748;2022-08-19T01:37:57;19.20;77.90
3075;DHT22;1548;51.716;8.748;2022-08-19T01:40:25;19.20;77.90
3075;DHT22;1548;51.716;8.748;2022-08-19T01:42:52;19.30;77.90
3075;DHT22;1548;51.716;8.748;2022-08-19T01:45:20;19.30;77.90
3075;DHT22;1548;51.716;8.748;2022-08-19T01:47:47;19.40;78.00
3075;DHT22;1548;51.716;8.748;2022-08-19T01:50:13;19.30;77.90
3075;DHT22;1548;51.716;8.748;2022-08-19T01:52:43;19.30;77.90
3075;DHT22;1548;51.716;8.748;2022-08-19T01:55:12;19.20;78.00
3075;DHT22;1548;51.716;8.748;2022-08-19T01:57:39;19.20;77.90
3075;DHT22;1548;51.716;8.748;2022-08-19T02:00:10;19.20;78.10
3075;DHT22;1548;51.716;8.748;2022-08-19T02:02:36;19.30;78.00
3075;DHT22;1548;51.716;8.748;2022-08-19T02:05:03;19.20;78.00
3075;DHT22;1548;51.716;8.748;2022-08-19T02:07:28;19.10;78.10
3075;DHT22;1548;51.716;8.748;2022-08-19T02:09:54;19.10;78.10
3075;DHT22;1548;51.716;8.748;2022-08-19T02:12:21;19.10;78.10
3075;DHT22;1548;51.716;8.748;2022-08-19T02:14:47;19.00;78.00
3075;DHT22;1548;51.716;8.748;2022-08-19T02:17:12;18.80;78.00
3075;DHT22;1548;51.716;8.748;2022-08-19T02:19:38;18.70;78.00
3075;DHT22;1548;51.716;8.748;2022-08-19T02:22:04;18.70;78.20
3075;DHT22;1548;51.716;8.748;2022-08-19T02:24:31;18.70;78.30
3075;DHT22;1548;51.716;8.748;2022-08-19T02:26:56;18.80;78.30
3075;DHT22;1548;51.716;8.748;2022-08-19T02:29:22;18.90;78.30
3075;DHT22;1548;51.716;8.748;2022-08-19T02:31:48;18.80;78.20
3075;DHT22;1548;51.716;8.748;2022-08-19T02:34:13;18.80;78.20
3075;DHT22;1548;51.716;8.748;2022-08-19T02:36:39;18.80;78.30
3075;DHT22;1548;51.716;8.748;2022-08-19T02:39:05;18.80;78.30
3075;DHT22;1548;51.716;8.748;2022-08-19T02:41:32;18.80;78.40
3075;DHT22;1548;51.716;8.748;2022-08-19T02:44:00;18.80;78.30
3075;DHT22;1548;51.716;8.748;2022-08-19T02:46:28;18.80;78.30
3075;DHT22;1548;51.716;8.748;2022-08-19T02:48:57;18.80;78.30
3075;DHT22;1548;51.716;8.748;2022-08-19T02:51:35;18.80;78.20
3075;DHT22;1548;51.716;8.748;2022-08-19T02:54:01;18.80;78.30
3075;DHT22;1548;51.716;8.748;2022-08-19T02:56:27;18.90;78.30
3075;DHT22;1548;51.716;8.748;2022-08-19T02:58:54;18.90;78.30
3075;DHT22;1548;51.716;8.748;2022-08-19T03:01:31;18.90;78.40
3075;DHT22;1548;51.716;8.748;2022-08-19T03:03:59;18.80;78.20
3075;DHT22;1548;51.716;8.748;2022-08-19T03:06:25;18.80;78.30
3075;DHT22;1548;51.716;8.748;2022-08-19T03:08:51;18.80;78.30
3075;DHT22;1548;51.716;8.748;2022-08-19T03:11:38;18.60;78.40
3075;DHT22;1548;51.716;8.748;2022-08-19T03:14:05;18.40;78.40
3075;DHT22;1548;51.716;8.748;2022-08-19T03:16:36;18.30;78.50
3075;DHT22;1548;51.716;8.748;2022-08-19T03:19:05;18.30;78.50
3075;DHT22;1548;51.716;8.748;2022-08-19T03:21:32;18.30;78.60
3075;DHT22;1548;51.716;8.748;2022-08-19T03:24:00;18.20;78.70
3075;DHT22;1548;51.716;8.748;2022-08-19T03:26:26;18.10;78.60
3075;DHT22;1548;51.716;8.748;2022-08-19T03:28:52;18.00;78.70
3075;DHT22;1548;51.716;8.748;2022-08-19T03:31:20;18.00;78.70
3075;DHT22;1548;51.716;8.748;2022-08-19T03:33:51;18.00;78.90
3075;DHT22;1548;51.716;8.748;2022-08-19T03:36:20;17.90;78.70
3075;DHT22;1548;51.716;8.748;2022-08-19T03:38:49;17.90;78.70
3075;DHT22;1548;51.716;8.748;2022-08-19T03:41:18;17.80;78.90
3075;DHT22;1548;51.716;8.748;2022-08-19T03:43:45;17.80;78.90
3075;DHT22;1548;51.716;8.748;2022-08-19T03:46:14;17.60;78.80
3075;DHT22;1548;51.716;8.748;2022-08-19T03:48:41;17.60;78.80
3075;DHT22;1548;51.716;8.748;2022-08-19T03:51:14;17.60;78.90
3075;DHT22;1548;51.716;8.748;2022-08-19T03:53:41;17.60;78.90
3075;DHT22;1548;51.716;8.748;2022-08-19T03:56:09;17.60;78.90
3075;DHT22;1548;51.716;8.748;2022-08-19T03:58:34;17.60;79.00
3075;DHT22;1548;51.716;8.748;2022-08-19T04:01:00;17.70;79.00
3075;DHT22;1548;51.716;8.748;2022-08-19T04:03:26;17.70;79.00
3075;DHT22;1548;51.716;8.748;2022-08-19T04:05:53;17.70;79.00
3075;DHT22;1548;51.716;8.748;2022-08-19T04:08:19;17.70;79.00
3075;DHT22;1548;51.716;8.748;2022-08-19T04:10:48;17.70;79.10
3075;DHT22;1548;51.716;8.748;2022-08-19T04:13:15;17.70;79.00
3075;DHT22;1548;51.716;8.748;2022-08-19T04:15:43;17.60;79.00
3075;DHT22;1548;51.716;8.748;2022-08-19T04:18:10;17.60;79.00
3075;DHT22;1548;51.716;8.748;2022-08-19T04:20:43;17.50;79.10
3075;DHT22;1548;51.716;8.748;2022-08-19T04:23:10;17.60;79.10
3075;DHT22;1548;51.716;8.748;2022-08-19T04:25:42;17.60;79.00
3075;DHT22;1548;51.716;8.748;2022-08-19T04:28:09;17.70;79.10
3075;DHT22;1548;51.716;8.748;2022-08-19T04:30:47;17.60;79.10
3075;DHT22;1548;51.716;8.748;2022-08-19T04:33:21;17.60;79.00
3075;DHT22;1548;51.716;8.748;2022-08-19T04:35:48;17.60;79.10
3075;DHT22;1548;51.716;8.748;2022-08-19T04:38:16;17.60;79.10
3075;DHT22;1548;51.716;8.748;2022-08-19T04:40:47;17.50;79.20
3075;DHT22;1548;51.716;8.748;2022-08-19T04:43:34;17.60;79.10
3075;DHT22;1548;51.716;8.748;2022-08-19T04:46:11;17.60;79.10
3075;DHT22;1548;51.716;8.748;2022-08-19T04:48:39;17.60;79.20
3075;DHT22;1548;51.716;8.748;2022-08-19T04:51:09;17.50;79.30
3075;DHT22;1548;51.716;8.748;2022-08-19T04:53:37;17.40;79.10
3075;DHT22;1548;51.716;8.748;2022-08-19T04:56:09;17.50;79.20
3075;DHT22;1548;51.716;8.748;2022-08-19T04:58:36;17.50;79.30
3075;DHT22;1548;51.716;8.748;2022-08-19T05:01:02;17.40;79.20
3075;DHT22;1548;51.716;8.748;2022-08-19T05:03:28;17.40;79.30
3075;DHT22;1548;51.716;8.748;2022-08-19T05:06:04;17.50;79.20
3075;DHT22;1548;51.716;8.748;2022-08-19T05:08:34;17.70;79.20
3075;DHT22;1548;51.716;8.748;2022-08-19T05:11:00;17.80;79.40
3075;DHT22;1548;51.716;8.748;2022-08-19T05:13:26;17.80;79.30
3075;DHT22;1548;51.716;8.748;2022-08-19T05:15:56;17.80;79.20
3075;DHT22;1548;51.716;8.748;2022-08-19T05:18:22;17.90;79.20
3075;DHT22;1548;51.716;8.748;2022-08-19T05:21:12;17.80;79.10
3075;DHT22;1548;51.716;8.748;2022-08-19T05:24:14;17.70;79.10
3075;DHT22;1548;51.716;8.748;2022-08-19T05:26:43;17.60;79.10
3075;DHT22;1548;51.716;8.748;2022-08-19T05:29:12;17.60;79.10
3075;DHT22;1548;51.716;8.748;2022-08-19T05:31:38;17.60;79.10
3075;DHT22;1548;51.716;8.748;2022-08-19T05:34:05;17.70;79.20
3075;DHT22;1548;51.716;8.748;2022-08-19T05:36:39;17.80;79.20
3075;DHT22;1548;51.716;8.748;2022-08-19T05:39:06;18.00;79.20
3075;DHT22;1548;51.716;8.748;2022-08-19T05:41:32;18.20;79.20
3075;DHT22;1548;51.716;8.748;2022-08-19T05:44:00;18.20;79.30
3075;DHT22;1548;51.716;8.748;2022-08-19T05:46:26;18.30;79.10
3075;DHT22;1548;51.716;8.748;2022-08-19T05:48:52;18.30;79.00
3075;DHT22;1548;51.716;8.748;2022-08-19T05:51:18;18.30;78.90
3075;DHT22;1548;51.716;8.748;2022-08-19T05:53:45;18.30;78.90
3075;DHT22;1548;51.716;8.748;2022-08-19T05:56:15;18.30;78.90
3075;DHT22;1548;51.716;8.748;2022-08-19T05:58:42;18.30;78.90
3075;DHT22;1548;51.716;8.748;2022-08-19T06:01:12;18.20;79.10
3075;DHT22;1548;51.716;8.748;2022-08-19T06:03:38;18.30;79.10
3075;DHT22;1548;51.716;8.748;2022-08-19T06:06:05;18.20;79.00
3075;DHT22;1548;51.716;8.748;2022-08-19T06:08:31;18.20;79.20
3075;DHT22;1548;51.716;8.748;2022-08-19T06:11:15;18.10;79.00
3075;DHT22;1548;51.716;8.748;2022-08-19T06:13:42;18.20;79.10
3075;DHT22;1548;51.716;8.748;2022-08-19T06:16:08;18.20;79.00
3075;DHT22;1548;51.716;8.748;2022-08-19T06:18:34;18.20;79.20
3075;DHT22;1548;51.716;8.748;2022-08-19T06:21:00;18.20;79.10
3075;DHT22;1548;51.716;8.748;2022-08-19T06:23:28;18.30;79.10
3075;DHT22;1548;51.716;8.748;2022-08-19T06:25:54;18.30;79.00
3075;DHT22;1548;51.716;8.748;2022-08-19T06:28:20;18.40;79.20
3075;DHT22;1548;51.716;8.748;2022-08-19T06:30:46;18.40;78.90
3075;DHT22;1548;51.716;8.748;2022-08-19T06:33:11;18.40;79.00
3075;DHT22;1548;51.716;8.748;2022-08-19T06:35:41;18.40;79.00
3075;DHT22;1548;51.716;8.748;2022-08-19T06:38:06;18.50;79.10
3075;DHT22;1548;51.716;8.748;2022-08-19T06:40:32;18.50;78.90
3075;DHT22;1548;51.716;8.748;2022-08-19T06:42:58;18.60;79.10
3075;DHT22;1548;51.716;8.748;2022-08-19T06:45:25;18.60;78.90
3075;DHT22;1548;51.716;8.748;2022-08-19T06:47:52;18.60;78.90
3075;DHT22;1548;51.716;8.748;2022-08-19T06:50:24;18.60;78.90
3075;DHT22;1548;51.716;8.748;2022-08-19T06:52:50;18.70;78.90
3075;DHT22;1548;51.716;8.748;2022-08-19T06:55:15;18.70;78.90
3075;DHT22;1548;51.716;8.748;2022-08-19T06:57:41;18.80;78.90
3075;DHT22;1548;51.716;8.748;2022-08-19T07:00:09;18.90;78.70
3075;DHT22;1548;51.716;8.748;2022-08-19T07:02:42;18.90;78.70
3075;DHT22;1548;51.716;8.748;2022-08-19T07:05:08;18.90;78.70
3075;DHT22;1548;51.716;8.748;2022-08-19T07:07:34;18.90;78.70
3075;DHT22;1548;51.716;8.748;2022-08-19T07:10:00;19.00;78.70
3075;DHT22;1548;51.716;8.748;2022-08-19T07:12:30;19.00;78.60
3075;DHT22;1548;51.716;8.748;2022-08-19T07:14:59;19.10;78.60
3075;DHT22;1548;51.716;8.748;2022-08-19T07:17:27;19.20;78.70
3075;DHT22;1548;51.716;8.748;2022-08-19T07:19:52;19.40;78.70
3075;DHT22;1548;51.716;8.748;2022-08-19T07:22:18;19.40;78.60
3075;DHT22;1548;51.716;8.748;2022-08-19T07:24:45;19.50;78.40
3075;DHT22;1548;51.716;8.748;2022-08-19T07:27:13;19.50;78.40
3075;DHT22;1548;51.716;8.748;2022-08-19T07:29:39;19.50;78.40
3075;DHT22;1548;51.716;8.748;2022-08-19T07:32:05;19.50;78.40
3075;DHT22;1548;51.716;8.748;2022-08-19T07:34:32;19.50;78.30
3075;DHT22;1548;51.716;8.748;2022-08-19T07:37:03;19.70;78.30
3075;DHT22;1548;51.716;8.748;2022-08-19T07:39:31;19.80;78.30
3075;DHT22;1548;51.716;8.748;2022-08-19T07:41:59;19.90;78.20
3075;DHT22;1548;51.716;8.748;2022-08-19T07:44:25;20.00;78.10
3075;DHT22;1548;51.716;8.748;2022-08-19T07:46:55;20.10;78.10
3075;DHT22;1548;51.716;8.748;2022-08-19T07:49:22;20.10;78.10
3075;DHT22;1548;51.716;8.748;2022-08-19T07:51:50;20.10;78.00
3075;DHT22;1548;51.716;8.748;2022-08-19T07:54:17;20.00;77.90
3075;DHT22;1548;51.716;8.748;2022-08-19T07:56:43;20.00;77.90
3075;DHT22;1548;51.716;8.748;2022-08-19T07:59:08;20.10;78.00
3075;DHT22;1548;51.716;8.748;2022-08-19T08:01:35;19.90;77.80
3075;DHT22;1548;51.716;8.748;2022-08-19T08:04:01;19.90;78.10
3075;DHT22;1548;51.716;8.748;2022-08-19T08:06:59;20.10;77.90
3075;DHT22;1548;51.716;8.748;2022-08-19T08:09:44;20.10;77.60
3075;DHT22;1548;51.716;8.748;2022-08-19T08:12:18;20.20;77.60
3075;DHT22;1548;51.716;8.748;2022-08-19T08:14:53;20.40;77.30
3075;DHT22;1548;51.716;8.748;2022-08-19T08:17:22;20.50;77.30
3075;DHT22;1548;51.716;8.748;2022-08-19T08:19:48;20.70;77.10
3075;DHT22;1548;51.716;8.748;2022-08-19T08:22:17;20.80;76.90
3075;DHT22;1548;51.716;8.748;2022-08-19T08:25:07;21.00;76.90
3075;DHT22;1548;51.716;8.748;2022-08-19T08:27:37;21.20;76.60
3075;DHT22;1548;51.716;8.748;2022-08-19T08:30:06;21.40;76.10
3075;DHT22;1548;51.716;8.748;2022-08-19T08:32:36;21.40;75.40
3075;DHT22;1548;51.716;8.748;2022-08-19T08:35:06;21.40;75.40
3075;DHT22;1548;51.716;8.748;2022-08-19T08:37:32;21.40;75.50
3075;DHT22;1548;51.716;8.748;2022-08-19T08:39:58;21.50;75.40
3075;DHT22;1548;51.716;8.748;2022-08-19T08:42:31;21.70;75.40
3075;DHT22;1548;51.716;8.748;2022-08-19T08:45:00;21.90;75.20
3075;DHT22;1548;51.716;8.748;2022-08-19T08:47:40;22.10;74.30
3075;DHT22;1548;51.716;8.748;2022-08-19T08:50:20;22.30;74.10
3075;DHT22;1548;51.716;8.748;2022-08-19T08:52:51;22.40;73.70
3075;DHT22;1548;51.716;8.748;2022-08-19T08:55:23;22.30;73.80
3075;DHT22;1548;51.716;8.748;2022-08-19T09:00:23;22.40;73.60
3075;DHT22;1548;51.716;8.748;2022-08-19T09:02:49;22.60;73.40
3075;DHT22;1548;51.716;8.748;2022-08-19T09:05:15;22.60;72.90
3075;DHT22;1548;51.716;8.748;2022-08-19T09:08:00;22.80;72.70
3075;DHT22;1548;51.716;8.748;2022-08-19T09:13:14;23.10;72.50
3075;DHT22;1548;51.716;8.748;2022-08-19T09:15:49;23.20;72.10
3075;DHT22;1548;51.716;8.748;2022-08-19T09:18:16;23.20;72.10
3075;DHT22;1548;51.716;8.748;2022-08-19T09:20:42;23.10;72.30
3075;DHT22;1548;51.716;8.748;2022-08-19T09:23:08;23.20;72.10
3075;DHT22;1548;51.716;8.748;2022-08-19T09:25:34;23.20;72.10
3075;DHT22;1548;51.716;8.748;2022-08-19T09:28:00;23.30;71.90
3075;DHT22;1548;51.716;8.748;2022-08-19T09:30:32;23.20;72.00
3075;DHT22;1548;51.716;8.748;2022-08-19T09:32:58;23.10;71.60
3075;DHT22;1548;51.716;8.748;2022-08-19T09:35:26;23.20;71.40
3075;DHT22;1548;51.716;8.748;2022-08-19T09:37:54;23.40;71.40
3075;DHT22;1548;51.716;8.748;2022-08-19T09:40:20;23.60;70.70
3075;DHT22;1548;51.716;8.748;2022-08-19T09:42:46;23.70;69.80
3075;DHT22;1548;51.716;8.748;2022-08-19T09:45:14;23.70;68.90
3075;DHT22;1548;51.716;8.748;2022-08-19T09:47:40;23.70;69.20
3075;DHT22;1548;51.716;8.748;2022-08-19T09:50:08;23.70;69.40
3075;DHT22;1548;51.716;8.748;2022-08-19T09:52:34;23.90;69.20
3075;DHT22;1548;51.716;8.748;2022-08-19T09:55:04;23.90;69.00
3075;DHT22;1548;51.716;8.748;2022-08-19T09:57:30;24.10;69.00
3075;DHT22;1548;51.716;8.748;2022-08-19T09:59:55;23.90;69.70
3075;DHT22;1548;51.716;8.748;2022-08-19T10:02:21;23.80;70.00
3075;DHT22;1548;51.716;8.748;2022-08-19T10:04:47;23.90;70.00
3075;DHT22;1548;51.716;8.748;2022-08-19T10:07:31;24.10;69.90
3075;DHT22;1548;51.716;8.748;2022-08-19T10:09:56;24.30;69.10
3075;DHT22;1548;51.716;8.748;2022-08-19T10:12:22;24.40;68.10
3075;DHT22;1548;51.716;8.748;2022-08-19T10:14:48;24.30;68.00
3075;DHT22;1548;51.716;8.748;2022-08-19T10:17:16;24.20;68.30
3075;DHT22;1548;51.716;8.748;2022-08-19T10:19:42;24.20;68.40
3075;DHT22;1548;51.716;8.748;2022-08-19T10:22:08;24.40;68.50
3075;DHT22;1548;51.716;8.748;2022-08-19T10:24:36;24.60;68.20
3075;DHT22;1548;51.716;8.748;2022-08-19T10:27:02;24.80;67.40
3075;DHT22;1548;51.716;8.748;2022-08-19T10:29:31;24.40;67.90
3075;DHT22;1548;51.716;8.748;2022-08-19T10:32:04;24.50;68.00
3075;DHT22;1548;51.716;8.748;2022-08-19T10:34:31;24.50;67.60
3075;DHT22;1548;51.716;8.748;2022-08-19T10:36:58;24.60;67.70
3075;DHT22;1548;51.716;8.748;2022-08-19T10:39:24;24.70;67.60
3075;DHT22;1548;51.716;8.748;2022-08-19T10:41:50;24.70;67.60
3075;DHT22;1548;51.716;8.748;2022-08-19T10:44:16;24.80;67.30
3075;DHT22;1548;51.716;8.748;2022-08-19T10:46:43;24.80;67.10
3075;DHT22;1548;51.716;8.748;2022-08-19T10:49:12;24.90;67.20
3075;DHT22;1548;51.716;8.748;2022-08-19T10:51:39;25.00;66.90
3075;DHT22;1548;51.716;8.748;2022-08-19T10:54:24;25.20;66.30
3075;DHT22;1548;51.716;8.748;2022-08-19T10:57:09;25.20;66.60
3075;DHT22;1548;51.716;8.748;2022-08-19T10:59:35;25.40;66.50
3075;DHT22;1548;51.716;8.748;2022-08-19T11:02:04;25.30;66.70
3075;DHT22;1548;51.716;8.748;2022-08-19T11:04:30;25.30;66.70
3075;DHT22;1548;51.716;8.748;2022-08-19T11:06:57;25.30;66.60
3075;DHT22;1548;51.716;8.748;2022-08-19T11:09:24;25.40;66.60
3075;DHT22;1548;51.716;8.748;2022-08-19T11:11:51;25.20;66.70
3075;DHT22;1548;51.716;8.748;2022-08-19T11:14:19;25.10;67.10
3075;DHT22;1548;51.716;8.748;2022-08-19T11:16:46;25.20;67.10
3075;DHT22;1548;51.716;8.748;2022-08-19T11:19:13;25.10;66.70
3075;DHT22;1548;51.716;8.748;2022-08-19T11:21:44;25.20;66.70
3075;DHT22;1548;51.716;8.748;2022-08-19T11:24:18;25.30;66.60
3075;DHT22;1548;51.716;8.748;2022-08-19T11:26:46;25.40;66.60
3075;DHT22;1548;51.716;8.748;2022-08-19T11:29:13;25.50;66.40
3075;DHT22;1548;51.716;8.748;2022-08-19T11:31:42;25.70;66.30
3075;DHT22;1548;51.716;8.748;2022-08-19T11:34:10;25.50;66.60
3075;DHT22;1548;51.716;8.748;2022-08-19T11:36:38;25.50;66.20
3075;DHT22;1548;51.716;8.748;2022-08-19T11:39:06;25.30;66.50
3075;DHT22;1548;51.716;8.748;2022-08-19T11:41:31;25.40;66.80
3075;DHT22;1548;51.716;8.748;2022-08-19T11:43:57;25.40;66.40
3075;DHT22;1548;51.716;8.748;2022-08-19T11:46:24;25.30;66.50
3075;DHT22;1548;51.716;8.748;2022-08-19T11:48:50;25.40;66.40
3075;DHT22;1548;51.716;8.748;2022-08-19T11:51:19;25.20;65.80
3075;DHT22;1548;51.716;8.748;2022-08-19T11:53:45;25.10;65.40
3075;DHT22;1548;51.716;8.748;2022-08-19T11:56:11;25.00;65.70
3075;DHT22;1548;51.716;8.748;2022-08-19T11:58:37;25.00;64.60
3075;DHT22;1548;51.716;8.748;2022-08-19T12:01:08;25.20;64.30
3075;DHT22;1548;51.716;8.748;2022-08-19T12:03:36;25.10;64.60
3075;DHT22;1548;51.716;8.748;2022-08-19T12:06:07;25.20;63.60
3075;DHT22;1548;51.716;8.748;2022-08-19T12:08:33;25.50;62.80
3075;DHT22;1548;51.716;8.748;2022-08-19T12:10:58;25.50;62.60
3075;DHT22;1548;51.716;8.748;2022-08-19T12:13:28;25.50;62.20
3075;DHT22;1548;51.716;8.748;2022-08-19T12:15:53;25.50;62.40
3075;DHT22;1548;51.716;8.748;2022-08-19T12:18:19;25.80;61.70
3075;DHT22;1548;51.716;8.748;2022-08-19T12:20:45;25.70;61.40
3075;DHT22;1548;51.716;8.748;2022-08-19T12:23:11;25.70;58.70
3075;DHT22;1548;51.716;8.748;2022-08-19T12:25:43;25.70;58.20
3075;DHT22;1548;51.716;8.748;2022-08-19T12:28:18;25.80;58.90
3075;DHT22;1548;51.716;8.748;2022-08-19T12:30:44;25.80;59.20
3075;DHT22;1548;51.716;8.748;2022-08-19T12:33:10;25.90;59.90
3075;DHT22;1548;51.716;8.748;2022-08-19T12:35:42;26.00;58.80
3075;DHT22;1548;51.716;8.748;2022-08-19T12:38:10;26.00;58.20
3075;DHT22;1548;51.716;8.748;2022-08-19T12:40:35;26.00;56.80
3075;DHT22;1548;51.716;8.748;2022-08-19T12:43:01;26.00;57.00
3075;DHT22;1548;51.716;8.748;2022-08-19T12:45:27;26.10;57.20
3075;DHT22;1548;51.716;8.748;2022-08-19T12:47:53;26.00;57.90
3075;DHT22;1548;51.716;8.748;2022-08-19T12:50:19;26.20;58.00
3075;DHT22;1548;51.716;8.748;2022-08-19T12:52:46;26.00;57.80
3075;DHT22;1548;51.716;8.748;2022-08-19T12:55:12;26.00;57.90
3075;DHT22;1548;51.716;8.748;2022-08-19T12:57:38;26.20;57.90
3075;DHT22;1548;51.716;8.748;2022-08-19T13:02:32;26.30;58.40
3075;DHT22;1548;51.716;8.748;2022-08-19T13:05:00;26.30;58.80
3075;DHT22;1548;51.716;8.748;2022-08-19T13:07:25;26.30;58.80
3075;DHT22;1548;51.716;8.748;2022-08-19T13:09:52;26.40;58.10
3075;DHT22;1548;51.716;8.748;2022-08-19T13:12:17;26.40;58.20
3075;DHT22;1548;51.716;8.748;2022-08-19T13:14:43;26.50;57.80
3075;DHT22;1548;51.716;8.748;2022-08-19T13:17:15;26.50;57.90
3075;DHT22;1548;51.716;8.748;2022-08-19T13:19:41;26.90;57.60
3075;DHT22;1548;51.716;8.748;2022-08-19T13:22:06;27.20;56.80
3075;DHT22;1548;51.716;8.748;2022-08-19T13:24:32;27.30;57.10
3075;DHT22;1548;51.716;8.748;2022-08-19T13:26:59;27.40;57.10
3075;DHT22;1548;51.716;8.748;2022-08-19T13:29:25;27.60;56.80
3075;DHT22;1548;51.716;8.748;2022-08-19T13:32:09;27.50;56.70
3075;DHT22;1548;51.716;8.748;2022-08-19T13:34:53;27.40;57.30
3075;DHT22;1548;51.716;8.748;2022-08-19T13:37:19;27.60;57.00
3075;DHT22;1548;51.716;8.748;2022-08-19T13:40:05;27.90;56.40
3075;DHT22;1548;51.716;8.748;2022-08-19T13:42:31;28.00;55.00
3075;DHT22;1548;51.716;8.748;2022-08-19T13:44:57;27.90;54.50
3075;DHT22;1548;51.716;8.748;2022-08-19T13:47:23;27.70;55.10
3075;DHT22;1548;51.716;8.748;2022-08-19T13:49:49;27.60;55.80
3075;DHT22;1548;51.716;8.748;2022-08-19T13:52:15;27.40;56.40
3075;DHT22;1548;51.716;8.748;2022-08-19T13:54:41;27.20;56.90
3075;DHT22;1548;51.716;8.748;2022-08-19T13:57:06;27.10;57.40
3075;DHT22;1548;51.716;8.748;2022-08-19T13:59:32;27.00;57.70
3075;DHT22;1548;51.716;8.748;2022-08-19T14:01:59;26.90;58.00
3075;DHT22;1548;51.716;8.748;2022-08-19T14:04:25;27.00;57.60
3075;DHT22;1548;51.716;8.748;2022-08-19T14:06:51;26.90;58.20
3075;DHT22;1548;51.716;8.748;2022-08-19T14:09:16;26.90;58.50
3075;DHT22;1548;51.716;8.748;2022-08-19T14:11:42;27.10;58.30
3075;DHT22;1548;51.716;8.748;2022-08-19T14:14:07;27.10;57.90
3075;DHT22;1548;51.716;8.748;2022-08-19T14:16:33;27.10;58.20
3075;DHT22;1548;51.716;8.748;2022-08-19T14:18:59;27.10;57.90
3075;DHT22;1548;51.716;8.748;2022-08-19T14:21:24;27.10;57.80
3075;DHT22;1548;51.716;8.748;2022-08-19T14:23:51;27.20;57.90
3075;DHT22;1548;51.716;8.748;2022-08-19T14:26:19;27.30;57.80
3075;DHT22;1548;51.716;8.748;2022-08-19T14:28:45;27.40;56.50
3075;DHT22;1548;51.716;8.748;2022-08-19T14:31:12;27.50;56.60
3075;DHT22;1548;51.716;8.748;2022-08-19T14:33:38;27.60;56.80
3075;DHT22;1548;51.716;8.748;2022-08-19T14:36:06;27.50;57.00
3075;DHT22;1548;51.716;8.748;2022-08-19T14:38:32;27.50;56.70
3075;DHT22;1548;51.716;8.748;2022-08-19T14:41:17;27.60;56.50
3075;DHT22;1548;51.716;8.748;2022-08-19T14:43:46;27.80;55.90
3075;DHT22;1548;51.716;8.748;2022-08-19T14:46:13;27.80;55.60
3075;DHT22;1548;51.716;8.748;2022-08-19T14:48:41;27.90;55.90
3075;DHT22;1548;51.716;8.748;2022-08-19T14:51:06;28.10;55.60
3075;DHT22;1548;51.716;8.748;2022-08-19T14:53:32;28.30;54.70
3075;DHT22;1548;51.716;8.748;2022-08-19T14:56:01;28.20;54.60
3075;DHT22;1548;51.716;8.748;2022-08-19T14:58:31;27.90;54.70
3075;DHT22;1548;51.716;8.748;2022-08-19T15:00:58;27.90;54.90
3075;DHT22;1548;51.716;8.748;2022-08-19T15:03:25;27.90;54.80
3075;DHT22;1548;51.716;8.748;2022-08-19T15:05:51;28.00;54.90
3075;DHT22;1548;51.716;8.748;2022-08-19T15:08:17;27.90;54.90
3075;DHT22;1548;51.716;8.748;2022-08-19T15:10:42;27.70;55.60
3075;DHT22;1548;51.716;8.748;2022-08-19T15:13:08;27.60;56.70
3075;DHT22;1548;51.716;8.748;2022-08-19T15:15:35;27.50;56.60
3075;DHT22;1548;51.716;8.748;2022-08-19T15:18:00;27.50;57.20
3075;DHT22;1548;51.716;8.748;2022-08-19T15:20:28;27.50;56.90
3075;DHT22;1548;51.716;8.748;2022-08-19T15:22:54;27.40;57.30
3075;DHT22;1548;51.716;8.748;2022-08-19T15:25:20;27.30;57.50
3075;DHT22;1548;51.716;8.748;2022-08-19T15:27:47;27.20;57.70
3075;DHT22;1548;51.716;8.748;2022-08-19T15:30:22;27.30;57.80
3075;DHT22;1548;51.716;8.748;2022-08-19T15:32:49;27.20;57.70
3075;DHT22;1548;51.716;8.748;2022-08-19T15:35:16;27.40;57.30
3075;DHT22;1548;51.716;8.748;2022-08-19T15:37:44;27.60;56.80
3075;DHT22;1548;51.716;8.748;2022-08-19T15:40:11;27.70;56.10
3075;DHT22;1548;51.716;8.748;2022-08-19T15:42:37;27.90;55.50
3075;DHT22;1548;51.716;8.748;2022-08-19T15:45:06;28.00;55.60
3075;DHT22;1548;51.716;8.748;2022-08-19T15:47:32;28.20;54.30
3075;DHT22;1548;51.716;8.748;2022-08-19T15:49:57;28.50;53.60
3075;DHT22;1548;51.716;8.748;2022-08-19T15:52:23;28.60;53.30
3075;DHT22;1548;51.716;8.748;2022-08-19T15:54:49;28.90;53.50
3075;DHT22;1548;51.716;8.748;2022-08-19T15:57:15;29.30;52.90
3075;DHT22;1548;51.716;8.748;2022-08-19T15:59:47;29.10;52.50
3075;DHT22;1548;51.716;8.748;2022-08-19T16:02:32;29.10;52.40
3075;DHT22;1548;51.716;8.748;2022-08-19T16:05:19;29.20;52.40
3075;DHT22;1548;51.716;8.748;2022-08-19T16:08:04;29.20;52.50
3075;DHT22;1548;51.716;8.748;2022-08-19T16:10:30;29.20;52.60
3075;DHT22;1548;51.716;8.748;2022-08-19T16:12:57;29.20;52.80
3075;DHT22;1548;51.716;8.748;2022-08-19T16:15:28;29.30;52.70
3075;DHT22;1548;51.716;8.748;2022-08-19T16:17:56;29.20;52.80